Time;durP1;ratioP1;P1;durP2;ratioP2;P2;SDS_P1;SDS_P2;PMS_P1;PMS_P2;Temp;Humidity;BMP_temperature;BMP_pressure;BME280_temperature;BME280_humidity;BME280_pressure;Samples;Min_cycle;Max_cycle;Signal;HPM_P1;HPM_P2
2022/01/21 00:01:15;;;;;;;9.20;3.40;;;;;;;1.68;68.25;96573.53;5020784;28;20206;-83
2022/01/21 00:03:42;;;;;;;5.60;2.77;;;;;;;1.74;67.36;96570.56;5020294;28;20234;-83
2022/01/21 00:06:09;;;;;;;6.83;2.83;;;;;;;1.72;67.45;96572.44;5019604;28;20242;-83
2022/01/21 00:08:38;;;;;;;6.47;2.80;;;;;;;1.77;67.30;96577.19;5019074;28;20198;-83
2022/01/21 00:11:06;;;;;;;4.13;2.63;;;;;;;1.79;67.03;96574.56;5020229;28;20698;-84
2022/01/21 00:13:36;;;;;;;6.53;2.90;;;;;;;1.77;67.23;96573.84;5019059;28;20229;-83
2022/01/21 00:16:03;;;;;;;5.30;2.57;;;;;;;1.72;67.00;96569.06;5019650;28;20234;-83
2022/01/21 00:18:30;;;;;;;4.20;2.47;;;;;;;1.61;67.03;96572.28;5019581;28;20237;-83
2022/01/21 00:31:54;;;;;;;6.27;2.70;;;;;;;1.65;67.36;96573.72;5024743;28;20694;-83
2022/01/21 00:34:21;;;;;;;5.20;2.80;;;;;;;1.67;67.45;96576.97;5030006;28;20221;-82
2022/01/21 00:36:47;;;;;;;3.83;2.70;;;;;;;1.76;67.58;96584.91;5019718;28;20230;-83
2022/01/21 00:39:14;;;;;;;5.80;3.10;;;;;;;1.84;67.09;96578.44;5019484;28;20282;-83
2022/01/21 00:41:53;;;;;;;5.50;2.67;;;;;;;1.85;66.61;96577.53;5019672;28;20203;-83
2022/01/21 00:44:20;;;;;;;6.57;3.20;;;;;;;1.83;66.96;96573.44;5019156;28;20210;-84
2022/01/21 00:46:46;;;;;;;5.60;3.00;;;;;;;1.83;67.38;96574.25;5018663;28;20235;-83
2022/01/21 00:49:13;;;;;;;8.37;2.93;;;;;;;1.79;67.22;96590.59;5017882;28;20208;-83
2022/01/21 00:51:39;;;;;;;5.73;2.97;;;;;;;1.85;67.10;96591.94;5018463;28;20231;-83
2022/01/21 00:54:05;;;;;;;5.43;2.77;;;;;;;1.91;67.10;96589.84;5018639;28;20207;-83
2022/01/21 00:56:32;;;;;;;5.07;2.77;;;;;;;1.92;67.50;96593.19;5018240;28;20245;-83
2022/01/21 00:59:00;;;;;;;5.77;3.07;;;;;;;1.94;67.67;96589.59;5018229;28;20210;-83
2022/01/21 01:01:26;;;;;;;6.57;3.30;;;;;;;1.91;67.25;96587.28;5018114;28;20203;-83
2022/01/21 01:03:53;;;;;;;4.87;3.03;;;;;;;1.95;67.60;96600.59;5018537;28;20218;-83
2022/01/21 01:06:19;;;;;;;5.00;2.90;;;;;;;1.94;67.76;96596.41;5018080;28;20631;-83
2022/01/21 01:08:48;;;;;;;7.20;3.20;;;;;;;1.91;68.10;96597.44;5018304;28;20589;-83
2022/01/21 01:11:21;;;;;;;6.50;3.17;;;;;;;1.81;68.06;96598.13;5018500;28;20285;-83
2022/01/21 01:22:03;;;;;;;8.43;3.10;;;;;;;1.82;68.46;96610.72;5016853;28;20248;-83
2022/01/21 01:29:59;;;;;;;5.13;3.30;;;;;;;1.90;68.55;96608.53;5016923;28;20206;-83
2022/01/21 01:32:29;;;;;;;8.20;3.60;;;;;;;1.90;68.37;96600.91;5016689;28;20237;-83
2022/01/21 01:34:55;;;;;;;5.03;2.87;;;;;;;1.85;68.33;96605.44;5016829;28;20248;-83
2022/01/21 01:37:35;;;;;;;5.60;2.97;;;;;;;1.90;68.46;96605.16;5016781;28;20230;-84
2022/01/21 01:40:14;;;;;;;5.80;3.20;;;;;;;1.84;69.02;96608.91;5016927;28;20206;-83
2022/01/21 01:43:04;;;;;;;7.40;3.30;;;;;;;1.93;69.46;96613.38;5017013;28;20229;-83
2022/01/21 01:51:02;;;;;;;8.00;2.80;;;;;;;1.97;69.86;96624.97;5016188;28;20214;-83
2022/01/21 01:53:33;;;;;;;8.93;2.73;;;;;;;2.01;69.81;96643.38;5017059;28;20237;-83
2022/01/21 01:56:02;;;;;;;5.77;3.10;;;;;;;2.02;69.35;96634.84;5016194;28;20230;-83
2022/01/21 01:58:29;;;;;;;4.07;2.73;;;;;;;2.09;69.44;96638.63;5017202;28;20198;-83
2022/01/21 02:00:56;;;;;;;4.90;2.90;;;;;;;2.06;68.81;96633.75;5016452;28;20680;-83
2022/01/21 02:03:25;;;;;;;4.23;3.03;;;;;;;2.16;69.11;96639.03;5016218;28;20230;-83
2022/01/21 02:05:51;;;;;;;6.50;3.10;;;;;;;2.15;68.54;96632.31;5016520;28;20329;-83
2022/01/21 02:08:18;;;;;;;4.40;3.20;;;;;;;2.13;68.08;96629.88;5015970;28;20203;-83
2022/01/21 02:10:44;;;;;;;6.43;3.43;;;;;;;2.12;68.22;96628.25;5015814;28;20210;-83
2022/01/21 02:13:21;;;;;;;5.10;2.67;;;;;;;2.04;68.85;96623.69;5016532;28;20226;-83
2022/01/21 02:15:57;;;;;;;8.43;3.63;;;;;;;2.12;68.90;96625.69;5015617;28;20233;-83
2022/01/21 02:21:34;;;;;;;7.00;3.10;;;;;;;2.13;67.62;96616.34;5015812;28;20214;-83
2022/01/21 02:24:05;;;;;;;4.40;2.57;;;;;;;2.08;67.73;96614.13;5016343;28;20557;-83
2022/01/21 02:26:32;;;;;;;6.43;2.57;;;;;;;2.07;67.58;96615.88;5015424;28;20235;-83
2022/01/21 02:29:01;;;;;;;5.30;2.70;;;;;;;2.12;68.01;96614.75;5015983;28;20214;-83
2022/01/21 02:31:27;;;;;;;6.20;3.20;;;;;;;2.10;67.14;96611.50;5016179;28;20268;-83
2022/01/21 02:33:54;;;;;;;5.33;3.03;;;;;;;2.01;67.88;96613.72;5015090;28;20219;-83
2022/01/21 02:36:22;;;;;;;5.47;2.70;;;;;;;2.08;67.54;96609.06;5016108;28;20306;-83
2022/01/21 02:38:48;;;;;;;5.97;2.87;;;;;;;2.06;67.35;96614.25;5015340;28;20202;-83
2022/01/21 02:41:15;;;;;;;7.37;2.83;;;;;;;2.07;67.63;96612.50;5016220;28;20207;-83
2022/01/21 02:43:41;;;;;;;7.03;3.03;;;;;;;2.06;67.50;96610.88;5015448;28;20731;-83
2022/01/21 02:46:09;;;;;;;4.70;2.80;;;;;;;2.12;66.95;96607.94;5014711;28;20226;-83
2022/01/21 02:48:38;;;;;;;4.17;2.73;;;;;;;2.21;66.91;96621.78;5015372;28;20580;-83
2022/01/21 02:51:06;;;;;;;5.80;2.93;;;;;;;2.23;66.96;96617.41;5014602;28;20281;-83
2022/01/21 02:54:03;;;;;;;4.63;2.47;;;;;;;2.27;66.17;96608.69;5015032;28;20277;-83
2022/01/21 02:56:27;;;;;;;4.40;2.80;;;;;;;2.24;66.14;96609.69;5014354;28;20525;-83
2022/01/21 02:58:53;;;;;;;3.60;2.33;;;;;;;2.27;66.16;96611.22;5014540;28;20202;-83
2022/01/21 03:01:21;;;;;;;5.53;2.90;;;;;;;2.16;66.00;96616.97;5014436;28;20211;-83
2022/01/21 03:03:47;;;;;;;6.10;2.80;;;;;;;2.04;66.63;96621.13;5016178;28;20245;-83
2022/01/21 03:06:15;;;;;;;5.20;2.87;;;;;;;2.00;66.44;96616.34;5017814;28;20761;-83
2022/01/21 03:08:44;;;;;;;6.10;2.77;;;;;;;1.92;66.70;96618.59;5016230;28;20207;-84
2022/01/21 03:11:12;;;;;;;5.60;2.80;;;;;;;1.98;67.16;96611.38;5016723;28;20207;-82
2022/01/21 03:13:38;;;;;;;6.17;3.03;;;;;;;1.97;67.17;96621.63;5018166;28;20329;-83
2022/01/21 03:16:05;;;;;;;6.37;2.90;;;;;;;2.03;67.00;96621.22;5019992;28;20233;-84
2022/01/21 03:18:31;;;;;;;10.07;3.20;;;;;;;2.08;67.47;96626.84;5021294;28;20718;-84
2022/01/21 03:20:58;;;;;;;7.47;3.07;;;;;;;2.09;66.96;96628.47;5021448;28;20221;-84
2022/01/21 03:23:27;;;;;;;4.53;2.67;;;;;;;2.08;66.68;96631.91;5020762;28;20226;-83
2022/01/21 03:25:55;;;;;;;6.67;3.17;;;;;;;2.14;66.96;96633.22;5020030;28;20249;-83
2022/01/21 03:28:21;;;;;;;6.67;2.90;;;;;;;2.05;67.33;96637.19;5019715;28;20230;-83
2022/01/21 03:30:50;;;;;;;6.50;3.10;;;;;;;1.96;67.23;96641.13;5018620;28;20269;-83
2022/01/21 03:33:17;;;;;;;7.93;3.43;;;;;;;1.98;67.74;96641.84;5019658;28;20261;-83
2022/01/21 03:35:43;;;;;;;5.27;2.80;;;;;;;2.07;67.71;96650.63;5018726;28;20218;-83
2022/01/21 03:38:10;;;;;;;4.47;3.07;;;;;;;2.06;67.54;96644.72;5019130;28;20202;-83
2022/01/21 03:40:36;;;;;;;7.90;3.20;;;;;;;2.12;67.73;96651.09;5019012;28;20203;-83
2022/01/21 03:43:04;;;;;;;4.10;2.87;;;;;;;2.06;67.20;96649.78;5018845;28;20218;-83
2022/01/21 03:45:30;;;;;;;6.87;3.00;;;;;;;2.06;67.36;96646.44;5018740;28;20218;-83
2022/01/21 03:47:57;;;;;;;4.77;3.17;;;;;;;2.07;67.85;96648.06;5018400;28;20243;-83
2022/01/21 03:50:31;;;;;;;5.83;3.23;;;;;;;2.00;67.65;96654.44;5019677;28;20679;-83
2022/01/21 03:52:57;;;;;;;4.10;2.73;;;;;;;2.02;67.88;96648.34;5018564;28;20231;-83
2022/01/21 03:55:24;;;;;;;5.57;3.33;;;;;;;2.12;67.60;96650.31;5019497;28;20209;-83
2022/01/21 03:57:51;;;;;;;7.77;3.17;;;;;;;2.11;67.89;96654.59;5017427;28;20230;-84
2022/01/21 04:00:23;;;;;;;4.67;2.60;;;;;;;1.99;67.87;96648.53;5018819;28;20308;-83
2022/01/21 04:02:50;;;;;;;5.47;3.20;;;;;;;2.03;67.81;96649.16;5018575;28;20231;-83
2022/01/21 04:05:17;;;;;;;4.30;2.87;;;;;;;2.07;68.18;96651.44;5018727;28;20210;-83
2022/01/21 04:07:43;;;;;;;4.80;3.33;;;;;;;2.01;68.66;96643.38;5018223;28;20230;-83
2022/01/21 04:10:10;;;;;;;5.33;3.00;;;;;;;2.01;68.32;96640.84;5018678;28;20210;-83
2022/01/21 04:12:37;;;;;;;4.93;2.70;;;;;;;2.07;68.49;96650.63;5018111;28;20269;-82
2022/01/21 04:15:04;;;;;;;5.20;3.53;;;;;;;2.04;68.47;96641.47;5018627;28;20265;-83
2022/01/21 04:17:32;;;;;;;5.57;2.77;;;;;;;2.01;68.69;96651.00;5017404;28;20229;-83
2022/01/21 04:19:59;;;;;;;7.20;3.27;;;;;;;2.02;68.43;96655.16;5018041;28;20214;-83
2022/01/21 04:22:25;;;;;;;6.57;3.77;;;;;;;2.02;68.63;96650.09;5017032;28;20222;-83
2022/01/21 04:24:51;;;;;;;3.90;2.57;;;;;;;2.01;68.78;96640.84;5017756;28;20664;-83
2022/01/21 04:27:18;;;;;;;5.40;3.47;;;;;;;2.01;69.13;96651.81;5017451;28;20230;-83
2022/01/21 04:29:45;;;;;;;5.97;3.03;;;;;;;1.95;69.41;96659.00;5017713;28;20206;-83
2022/01/21 04:32:12;;;;;;;5.77;3.37;;;;;;;1.97;69.43;96654.63;5017802;28;20233;-83
2022/01/21 04:34:40;;;;;;;5.07;3.40;;;;;;;1.96;69.33;96651.28;5017870;28;20214;-82
2022/01/21 04:37:10;;;;;;;4.20;2.90;;;;;;;1.95;69.55;96649.66;5017697;28;20223;-83
2022/01/21 04:39:42;;;;;;;7.37;3.30;;;;;;;1.95;69.71;96656.44;5016605;28;20210;-84
2022/01/21 04:47:40;;;;;;;5.67;2.77;;;;;;;1.95;70.11;96666.59;5017779;28;20233;-83
2022/01/21 04:50:12;;;;;;;4.50;3.10;;;;;;;1.88;70.21;96673.00;5018364;28;20276;-83
2022/01/21 04:52:39;;;;;;;6.50;3.27;;;;;;;1.82;70.30;96679.28;5017793;28;20226;-83
2022/01/21 04:55:07;;;;;;;6.47;3.40;;;;;;;1.87;70.00;96664.56;5017574;28;20203;-82
2022/01/21 04:57:34;;;;;;;5.53;3.27;;;;;;;1.91;70.10;96675.34;5016749;28;20234;-83
2022/01/21 05:00:00;;;;;;;4.20;2.90;;;;;;;1.87;70.36;96669.66;5017354;28;20206;-83
2022/01/21 05:02:28;;;;;;;5.43;3.53;;;;;;;1.88;70.39;96675.53;5016904;28;20314;-83
2022/01/21 05:04:54;;;;;;;5.77;3.40;;;;;;;1.98;70.18;96677.41;5017403;28;20203;-83
2022/01/21 05:07:25;;;;;;;4.33;3.10;;;;;;;2.01;70.38;96684.00;5017732;28;20246;-83
2022/01/21 05:09:51;;;;;;;7.90;3.60;;;;;;;1.96;70.01;96676.66;5017622;28;20289;-83
2022/01/21 05:12:20;;;;;;;4.17;3.00;;;;;;;2.01;70.05;96686.53;5016083;28;20809;-83
2022/01/21 05:14:52;;;;;;;7.60;3.40;;;;;;;2.01;70.13;96699.25;5016517;28;20245;-83
2022/01/21 05:17:19;;;;;;;5.50;3.23;;;;;;;2.03;69.63;96690.63;5016715;28;20250;-83
2022/01/21 05:19:45;;;;;;;5.70;3.13;;;;;;;2.04;70.15;96701.59;5020098;28;20239;-83
2022/01/21 05:22:12;;;;;;;6.50;3.30;;;;;;;2.05;69.70;96703.22;5018862;28;20226;-83
2022/01/21 05:24:40;;;;;;;7.10;3.47;;;;;;;2.01;69.83;96702.59;5018447;28;20203;-83
2022/01/21 05:27:07;;;;;;;5.10;3.17;;;;;;;1.98;69.93;96705.34;5017412;28;20234;-83
2022/01/21 05:29:34;;;;;;;5.80;2.93;;;;;;;2.04;69.92;96710.03;5016952;28;20207;-83
2022/01/21 05:32:02;;;;;;;6.40;3.57;;;;;;;1.95;70.23;96702.16;5016829;28;20704;-83
2022/01/21 05:34:28;;;;;;;5.30;2.90;;;;;;;1.92;70.08;96700.66;5018151;28;20586;-83
2022/01/21 05:36:55;;;;;;;5.07;3.13;;;;;;;1.91;69.77;96706.66;5015195;28;20721;-83
2022/01/21 05:39:22;;;;;;;6.30;3.50;;;;;;;1.89;69.74;96711.00;5022053;28;20217;-83
2022/01/21 05:41:52;;;;;;;7.53;3.50;;;;;;;1.90;69.89;96717.72;5014973;28;20290;-84
2022/01/21 05:46:23;;;;;;;6.47;3.10;;;;;;;1.95;69.86;96728.38;5014861;28;20195;-83
2022/01/21 05:47:08;;;;;;;6.77;3.43;;;;;;;1.90;69.11;96727.06;5015545;28;20206;-83
2022/01/21 05:49:36;;;;;;;5.60;3.27;;;;;;;1.79;70.30;96737.84;5015985;28;20253;-84
2022/01/21 05:52:08;;;;;;;6.00;2.80;;;;;;;1.80;70.36;96754.72;5015928;28;20230;-83
2022/01/21 05:54:35;;;;;;;2.77;2.00;;;;;;;1.88;69.65;96761.88;5015447;28;20261;-83
2022/01/21 05:57:06;;;;;;;3.73;1.97;;;;;;;1.78;69.73;96760.78;5015948;28;20295;-84
2022/01/21 05:59:33;;;;;;;5.40;1.83;;;;;;;1.74;69.77;96765.25;5016012;28;20233;-83
2022/01/21 06:02:00;;;;;;;2.70;1.90;;;;;;;1.69;69.87;96757.94;5016454;28;20237;-83
2022/01/21 06:04:26;;;;;;;3.37;1.70;;;;;;;1.70;69.72;96774.78;5016125;28;20199;-84
2022/01/21 06:06:53;;;;;;;8.30;1.93;;;;;;;1.60;69.53;96772.88;5033096;28;20202;-84
2022/01/21 06:09:19;;;;;;;3.07;1.73;;;;;;;1.71;69.21;96778.13;5035425;28;20244;-83
2022/01/21 06:11:46;;;;;;;1.83;1.63;;;;;;;1.68;69.21;96783.41;5036150;28;20198;-84
2022/01/21 06:14:14;;;;;;;3.47;1.70;;;;;;;1.68;69.27;96788.47;5035594;28;20209;-83
2022/01/21 06:16:40;;;;;;;4.07;1.90;;;;;;;1.66;68.93;96786.03;5035222;28;20197;-83
2022/01/21 06:19:07;;;;;;;2.83;2.00;;;;;;;1.68;69.86;96801.16;5023128;28;20226;-83
2022/01/21 06:21:33;;;;;;;3.97;1.90;;;;;;;1.76;69.48;96800.69;5016169;28;20215;-84
2022/01/21 06:24:00;;;;;;;3.70;1.80;;;;;;;1.68;69.59;96791.84;5015190;28;20227;-84
2022/01/21 06:26:26;;;;;;;2.80;1.90;;;;;;;1.62;71.06;96794.72;5016032;28;20203;-83
2022/01/21 06:28:53;;;;;;;3.93;2.10;;;;;;;1.60;72.24;96795.72;5015061;28;20234;-83
2022/01/21 06:31:20;;;;;;;4.17;2.00;;;;;;;1.74;72.07;96809.22;5015834;28;20210;-83
2022/01/21 06:33:47;;;;;;;3.00;1.70;;;;;;;1.77;71.23;96804.88;5014736;28;20219;-83
2022/01/21 06:36:14;;;;;;;2.27;1.80;;;;;;;1.72;70.28;96805.16;5015230;28;20198;-84
2022/01/21 06:38:40;;;;;;;4.67;2.17;;;;;;;1.74;69.55;96806.66;5015035;28;20199;-83
2022/01/21 06:41:07;;;;;;;5.63;2.17;;;;;;;1.63;69.44;96795.53;5014074;28;20254;-83
2022/01/21 06:43:33;;;;;;;7.23;2.40;;;;;;;1.73;69.58;96794.88;5014511;28;20257;-83
2022/01/21 06:46:00;;;;;;;3.73;1.97;;;;;;;1.65;69.37;96796.28;5015177;28;20226;-83
2022/01/21 06:48:28;;;;;;;4.43;2.90;;;;;;;1.67;69.04;96800.34;5016748;28;20249;-84
2022/01/21 06:50:54;;;;;;;5.97;2.70;;;;;;;1.65;68.73;96816.56;5019073;28;20289;-83
2022/01/21 06:53:21;;;;;;;4.10;2.30;;;;;;;1.77;68.78;96820.09;5021331;28;20229;-83
2022/01/21 06:55:47;;;;;;;4.33;2.30;;;;;;;1.85;68.38;96816.19;5019367;28;20199;-84
2022/01/21 06:58:14;;;;;;;4.87;2.10;;;;;;;1.93;67.88;96811.44;5018808;28;20579;-83
2022/01/21 07:00:41;;;;;;;6.80;2.50;;;;;;;1.89;67.23;96821.91;5018446;28;20226;-84
2022/01/21 07:03:07;;;;;;;6.57;2.70;;;;;;;1.86;67.15;96820.38;5018064;28;20230;-83
2022/01/21 07:05:35;;;;;;;4.67;2.37;;;;;;;1.90;67.04;96818.47;5018741;28;20210;-83
2022/01/21 07:08:01;;;;;;;4.97;2.67;;;;;;;1.94;67.38;96820.72;5018269;28;20234;-83
2022/01/21 07:10:29;;;;;;;6.87;2.50;;;;;;;2.00;67.11;96822.88;5017031;28;20230;-83
2022/01/21 07:12:57;;;;;;;6.57;2.80;;;;;;;2.00;66.63;96825.44;5017937;28;20219;-83
2022/01/21 07:15:23;;;;;;;5.10;2.53;;;;;;;2.05;66.60;96818.34;5017706;28;20211;-82
2022/01/21 07:17:52;;;;;;;6.37;2.63;;;;;;;2.08;66.50;96827.50;5017160;28;20213;-83
2022/01/21 07:20:19;;;;;;;5.33;2.60;;;;;;;2.10;65.95;96840.13;5017249;28;20260;-83
2022/01/21 07:22:47;;;;;;;7.23;2.97;;;;;;;2.14;66.12;96846.63;5017998;28;20222;-84
2022/01/21 07:25:14;;;;;;;5.97;2.93;;;;;;;2.11;66.02;96845.09;5017974;28;20509;-82
2022/01/21 07:27:41;;;;;;;5.80;2.80;;;;;;;2.15;65.91;96850.78;5017191;28;20206;-83
2022/01/21 07:30:11;;;;;;;7.37;2.97;;;;;;;2.12;65.76;96851.00;5016827;28;20227;-83
2022/01/21 07:32:38;;;;;;;6.60;2.87;;;;;;;2.12;66.23;96856.09;5017329;28;20313;-83
2022/01/21 07:35:07;;;;;;;5.50;2.97;;;;;;;2.10;66.75;96860.44;5018203;28;20585;-83
2022/01/21 07:37:33;;;;;;;5.67;3.00;;;;;;;2.08;66.62;96863.06;5017553;28;20247;-83
2022/01/21 07:40:01;;;;;;;8.40;3.13;;;;;;;2.10;66.68;96858.72;5017177;28;20234;-83
2022/01/21 07:42:29;;;;;;;6.63;3.27;;;;;;;2.03;67.30;96857.44;5017676;28;20223;-83
2022/01/21 07:44:55;;;;;;;5.03;2.87;;;;;;;2.05;67.71;96864.06;5018359;28;20683;-83
2022/01/21 07:47:22;;;;;;;7.23;3.20;;;;;;;2.04;68.15;96852.28;5024732;28;20214;-83
2022/01/21 07:49:48;;;;;;;5.70;3.07;;;;;;;2.01;68.18;96851.63;5024916;28;20242;-83
2022/01/21 07:52:15;;;;;;;7.30;3.47;;;;;;;2.00;68.36;96853.38;5018950;28;20238;-83
2022/01/21 07:54:41;;;;;;;9.33;3.60;;;;;;;1.91;69.58;96853.13;5019559;28;20615;-83
2022/01/21 07:57:10;;;;;;;6.30;3.60;;;;;;;1.96;69.33;96853.63;5018601;28;20210;-84
2022/01/21 07:59:37;;;;;;;7.93;3.30;;;;;;;1.97;69.02;96855.25;5017283;28;20226;-83
2022/01/21 08:02:05;;;;;;;7.53;3.63;;;;;;;2.01;68.50;96855.00;5019623;28;20226;-83
2022/01/21 08:04:31;;;;;;;6.77;3.57;;;;;;;2.08;68.54;96863.88;5019986;28;20199;-83
2022/01/21 08:06:58;;;;;;;5.83;3.60;;;;;;;2.24;67.39;96868.84;5018633;28;20202;-83
2022/01/21 08:09:25;;;;;;;6.87;4.07;;;;;;;2.33;67.48;96867.44;5017051;28;20258;-83
2022/01/21 08:11:51;;;;;;;6.93;3.13;;;;;;;2.59;67.06;96858.22;5017628;28;20230;-84
2022/01/21 08:14:19;;;;;;;6.77;3.50;;;;;;;2.82;65.57;96854.22;5017693;28;20687;-84
2022/01/21 08:16:46;;;;;;;10.10;5.10;;;;;;;2.95;65.30;96866.06;5017771;28;20207;-83
2022/01/21 08:19:13;;;;;;;18.03;11.37;;;;;;;2.96;64.68;96859.25;5017312;28;20242;-84
2022/01/21 08:21:39;;;;;;;9.10;4.13;;;;;;;2.88;64.51;96851.31;5018477;28;20249;-83
2022/01/21 08:24:07;;;;;;;7.13;3.83;;;;;;;2.77;64.71;96859.59;5017518;28;20198;-84
2022/01/21 08:26:34;;;;;;;9.17;3.30;;;;;;;2.81;64.96;96845.78;5017886;28;20203;-83
2022/01/21 08:29:02;;;;;;;11.40;3.80;;;;;;;3.03;64.44;96842.69;5017553;28;20223;-84
2022/01/21 08:31:29;;;;;;;7.40;3.70;;;;;;;3.17;63.84;96837.50;5018086;28;20238;-84
2022/01/21 08:33:56;;;;;;;8.77;3.50;;;;;;;3.39;63.04;96845.38;5016988;28;20708;-84
2022/01/21 08:36:24;;;;;;;4.90;3.20;;;;;;;3.31;62.60;96845.03;5016384;28;20708;-83
2022/01/21 08:38:51;;;;;;;8.73;3.70;;;;;;;3.73;62.35;96859.22;5016546;28;20199;-84
2022/01/21 08:41:18;;;;;;;7.73;3.43;;;;;;;3.96;61.12;96851.75;5017072;28;20207;-83
2022/01/21 08:43:44;;;;;;;5.93;4.07;;;;;;;3.98;60.96;96853.28;5017404;28;20231;-83
2022/01/21 08:46:11;;;;;;;5.57;3.47;;;;;;;4.01;60.66;96844.63;5017446;28;20213;-83
2022/01/21 08:48:40;;;;;;;5.13;3.17;;;;;;;4.10;60.38;96841.41;5016180;28;20690;-83
2022/01/21 08:51:10;;;;;;;5.87;3.40;;;;;;;3.98;59.58;96839.72;5016568;28;20245;-84
2022/01/21 08:53:38;;;;;;;7.87;3.90;;;;;;;3.76;60.05;96845.47;5016589;28;20229;-83
2022/01/21 08:56:07;;;;;;;6.13;3.03;;;;;;;3.64;61.13;96851.38;5017752;28;20206;-84
2022/01/21 08:58:35;;;;;;;9.80;4.00;;;;;;;3.80;61.13;96847.69;5011961;28;20200;-83
2022/01/21 09:01:02;;;;;;;7.80;3.47;;;;;;;3.80;60.19;96846.88;5003761;28;20242;-84
2022/01/21 09:03:28;;;;;;;6.40;3.30;;;;;;;3.55;60.50;96846.88;5010373;28;20234;-83
2022/01/21 09:05:56;;;;;;;5.30;3.37;;;;;;;3.60;60.72;96840.59;5017095;28;20203;-83
2022/01/21 09:08:25;;;;;;;6.63;3.43;;;;;;;3.88;60.60;96838.69;5016024;28;20230;-83
2022/01/21 09:10:53;;;;;;;26.27;17.83;;;;;;;4.16;59.96;96839.28;5014781;28;20267;-83
2022/01/21 09:13:21;;;;;;;10.67;4.20;;;;;;;4.27;59.21;96840.25;5016813;28;20230;-84
2022/01/21 09:15:47;;;;;;;7.37;3.77;;;;;;;4.48;58.43;96854.06;5017805;28;20672;-83
2022/01/21 09:18:18;;;;;;;7.57;3.63;;;;;;;4.45;57.92;96847.44;5017021;28;20207;-84
2022/01/21 09:20:45;;;;;;;5.97;3.30;;;;;;;4.35;57.90;96846.47;5017080;28;20235;-82
2022/01/21 09:23:13;;;;;;;6.43;3.40;;;;;;;4.11;57.98;96841.31;5015914;28;20237;-83
2022/01/21 09:25:40;;;;;;;7.33;3.20;;;;;;;3.93;58.06;96847.69;5015920;28;20213;-83
2022/01/21 09:28:07;;;;;;;6.67;3.23;;;;;;;4.31;58.15;96856.97;5016262;28;20202;-84
2022/01/21 09:30:33;;;;;;;8.13;3.60;;;;;;;4.63;57.33;96852.97;5014827;28;20231;-84
2022/01/21 09:33:00;;;;;;;5.67;3.10;;;;;;;4.66;57.21;96857.03;5016799;28;20223;-84
2022/01/21 09:35:27;;;;;;;5.87;2.80;;;;;;;4.67;56.65;96851.00;5017127;28;20203;-84
2022/01/21 09:37:53;;;;;;;7.80;2.97;;;;;;;4.89;56.48;96855.41;5016510;28;20210;-84
2022/01/21 09:40:30;;;;;;;5.43;3.23;;;;;;;4.69;56.02;96850.00;5016702;28;20486;-84
2022/01/21 09:42:57;;;;;;;4.70;2.57;;;;;;;4.84;55.66;96848.88;5017737;28;20226;-84
2022/01/21 09:45:24;;;;;;;7.10;2.83;;;;;;;4.63;56.39;96852.16;5016867;28;20206;-84
2022/01/21 09:47:54;;;;;;;8.20;3.13;;;;;;;4.75;55.92;96856.41;5016619;28;20222;-84
2022/01/21 09:50:23;;;;;;;5.40;2.77;;;;;;;4.64;55.66;96852.03;5015764;28;20237;-84
2022/01/21 09:52:51;;;;;;;6.03;2.77;;;;;;;4.35;56.41;96868.59;5017573;28;20235;-84
2022/01/21 09:55:20;;;;;;;6.30;2.60;;;;;;;3.96;57.35;96874.69;5018551;28;20206;-84
2022/01/21 09:57:49;;;;;;;5.23;2.60;;;;;;;3.81;57.34;96887.53;5018735;28;20214;-84
2022/01/21 10:00:17;;;;;;;7.17;2.83;;;;;;;3.59;57.89;96879.69;5017297;28;20309;-84
2022/01/21 10:02:45;;;;;;;4.73;2.30;;;;;;;3.51;58.18;96887.00;5017931;28;20234;-84
2022/01/21 10:05:12;;;;;;;7.27;2.50;;;;;;;3.70;58.46;96889.97;5018393;28;20338;-84
2022/01/21 10:07:41;;;;;;;4.27;2.10;;;;;;;3.70;57.87;96889.97;5017132;28;20203;-84
2022/01/21 10:10:09;;;;;;;6.67;3.47;;;;;;;3.48;58.51;96888.03;5016668;28;20230;-85
2022/01/21 10:12:38;;;;;;;5.23;2.67;;;;;;;3.29;57.94;96886.78;5016895;28;20250;-85
2022/01/21 10:15:08;;;;;;;7.83;2.67;;;;;;;3.09;58.31;96876.16;5017429;28;20203;-84
2022/01/21 10:17:35;;;;;;;4.97;2.73;;;;;;;3.11;58.41;96884.50;5017857;28;20203;-84
2022/01/21 10:20:13;;;;;;;4.80;2.50;;;;;;;3.22;58.17;96885.56;5018296;28;20951;-84
2022/01/21 10:22:39;;;;;;;7.13;2.90;;;;;;;3.43;58.25;96881.63;5017168;28;20219;-84
2022/01/21 10:25:12;;;;;;;8.90;2.90;;;;;;;3.62;58.64;96883.78;5016781;28;20234;-84
2022/01/21 10:27:39;;;;;;;6.07;2.90;;;;;;;3.58;58.67;96888.25;5015756;28;20203;-84
2022/01/21 10:30:20;;;;;;;7.03;3.23;;;;;;;3.56;58.69;96879.91;5016526;28;20238;-84
2022/01/21 10:32:46;;;;;;;5.67;3.90;;;;;;;3.58;58.69;96884.88;5020541;28;20594;-84
2022/01/21 10:35:20;;;;;;;7.60;3.10;;;;;;;3.64;59.10;96887.03;5018060;28;20210;-84
2022/01/21 10:37:48;;;;;;;6.00;3.13;;;;;;;3.45;58.50;96887.44;5016433;28;20613;-84
2022/01/21 10:40:15;;;;;;;7.60;3.27;;;;;;;3.24;58.77;96884.56;5016752;28;20241;-84
2022/01/21 10:42:42;;;;;;;6.70;3.37;;;;;;;3.12;59.73;96893.78;5015583;28;20226;-83
2022/01/21 10:45:11;;;;;;;7.57;3.27;;;;;;;3.00;60.83;96894.56;5016637;28;20297;-83
2022/01/21 10:47:41;;;;;;;9.40;3.47;;;;;;;2.94;61.09;96899.22;5015629;28;20199;-83
2022/01/21 10:50:11;;;;;;;6.40;3.77;;;;;;;2.74;61.91;96893.66;5016348;28;20234;-83
2022/01/21 10:52:39;;;;;;;6.43;3.20;;;;;;;2.72;61.58;96890.41;5015407;28;20234;-83
2022/01/21 10:55:26;;;;;;;7.07;3.50;;;;;;;2.75;61.53;96895.31;5015578;28;20230;-83
2022/01/21 10:58:07;;;;;;;5.23;3.10;;;;;;;2.86;61.38;96897.19;5015210;28;20199;-83
2022/01/21 11:00:57;;;;;;;8.33;3.43;;;;;;;2.97;61.89;96891.41;5014074;28;20226;-83
2022/01/21 11:03:28;;;;;;;4.37;3.20;;;;;;;3.29;61.54;96896.97;5015295;28;20231;-83
2022/01/21 11:06:08;;;;;;;5.30;3.67;;;;;;;3.62;60.81;96887.13;5015530;28;20207;-83
2022/01/21 11:08:35;;;;;;;5.33;3.20;;;;;;;3.73;59.35;96882.13;5015822;28;20210;-83
2022/01/21 11:11:02;;;;;;;7.17;2.80;;;;;;;3.63;58.01;96888.78;5014572;28;20238;-84
2022/01/21 11:13:42;;;;;;;5.13;2.40;;;;;;;3.42;57.90;96885.09;5015023;28;20277;-83
2022/01/21 11:16:16;;;;;;;11.43;3.20;;;;;;;3.27;57.09;96886.88;5015791;28;20214;-82
2022/01/21 11:21:40;;;;;;;6.30;2.57;;;;;;;2.89;57.37;96880.88;5011691;28;20272;-83
2022/01/21 11:24:08;;;;;;;4.90;2.13;;;;;;;2.73;57.47;96876.78;5014761;28;20262;-83
2022/01/21 11:26:35;;;;;;;5.77;2.60;;;;;;;2.71;57.91;96878.59;5014444;28;20203;-83
2022/01/21 11:29:04;;;;;;;5.80;2.27;;;;;;;2.68;57.47;96866.09;5014500;28;20209;-83
2022/01/21 11:31:32;;;;;;;5.33;2.30;;;;;;;3.17;57.49;96864.69;5013896;28;20715;-83
2022/01/21 11:33:59;;;;;;;13.00;8.57;;;;;;;3.72;56.77;96857.59;5016114;28;20226;-83
2022/01/21 11:36:26;;;;;;;9.60;4.13;;;;;;;4.09;57.07;96863.53;5018339;28;20210;-83
2022/01/21 11:38:55;;;;;;;6.40;2.73;;;;;;;4.22;54.77;96858.44;5017938;28;20210;-83
2022/01/21 11:41:24;;;;;;;6.27;2.57;;;;;;;4.03;54.00;96853.78;5017106;28;20376;-84
2022/01/21 11:43:55;;;;;;;5.37;2.40;;;;;;;3.93;53.55;96859.59;5016821;28;20659;-83
2022/01/21 11:46:40;;;;;;;4.70;2.60;;;;;;;3.77;52.60;96857.28;5017561;28;20203;-82
2022/01/21 11:49:10;;;;;;;3.13;2.17;;;;;;;3.99;60.24;96860.00;5025257;28;20212;-86
2022/01/21 11:51:39;;;;;;;5.43;2.20;;;;;;;4.31;63.86;96859.50;5034590;28;20226;-85
2022/01/21 11:54:08;;;;;;;6.70;2.13;;;;;;;4.35;60.10;96848.19;5016176;28;20223;-83
2022/01/21 11:56:43;;;;;;;7.43;4.27;;;;;;;4.48;58.18;96852.31;5016926;28;20206;-83
2022/01/21 11:59:15;;;;;;;6.77;3.33;;;;;;;4.61;53.98;96849.72;5015921;28;20249;-85
2022/01/21 12:01:47;;;;;;;4.13;2.13;;;;;;;4.68;56.35;96848.34;5014343;28;20236;-85
2022/01/21 12:04:36;;;;;;;5.30;2.37;;;;;;;4.71;52.27;96837.94;5015877;28;20688;-83
2022/01/21 12:07:03;;;;;;;4.43;2.13;;;;;;;4.83;50.69;96824.28;5016631;28;20247;-83
2022/01/21 12:09:57;;;;;;;4.70;1.93;;;;;;;5.10;51.64;96821.50;5016556;28;20227;-83
2022/01/21 12:12:24;;;;;;;4.60;2.23;;;;;;;5.16;49.18;96810.84;5015585;28;20583;-83
2022/01/21 12:14:56;;;;;;;4.23;2.03;;;;;;;5.13;48.77;96800.03;5015799;28;20202;-82
2022/01/21 12:17:39;;;;;;;3.13;2.03;;;;;;;5.14;48.91;96799.09;5016552;28;20285;-83
2022/01/21 12:20:08;;;;;;;3.60;2.13;;;;;;;5.20;49.22;96803.75;5014857;28;20232;-83
2022/01/21 12:22:35;;;;;;;5.77;2.30;;;;;;;5.39;49.12;96804.00;5014970;28;20222;-82
2022/01/21 12:25:08;;;;;;;16.47;8.27;;;;;;;5.34;49.67;96810.41;5012200;28;20206;-83
2022/01/21 12:27:35;;;;;;;8.07;3.20;;;;;;;5.22;49.38;96815.47;5009771;28;20294;-82
2022/01/21 12:30:28;;;;;;;4.93;2.67;;;;;;;5.09;49.10;96832.63;5014693;28;20383;-82